METAR Formatted Surface Weather Observation
Issued by NWS

Home | Current Version | Previous Version | Text Only | Print | Product List | Glossary On
Versions: 1 2
000
SAUS46 KSGX 282152
MTRSAN
METAR KSAN 282151Z 29009KT 10SM FEW020 24/16 A2989 RMK AO2 SLP122
T02440156



USA.gov is the U.S. government's official web portal to all federal, state and local government web resources and services.